sensor_id;sensor_type;location;lat;lon;timestamp;P1;durP1;ratioP1;P2;durP2;ratioP2
11197;SDS011;5655;48.744;9.162;2023-05-07T00:00:35;6.75;;;2.40;;
11197;SDS011;5655;48.744;9.162;2023-05-07T00:03:00;4.65;;;2.60;;
11197;SDS011;5655;48.744;9.162;2023-05-07T00:05:26;3.38;;;2.65;;
11197;SDS011;5655;48.744;9.162;2023-05-07T00:07:51;2.55;;;2.33;;
11197;SDS011;5655;48.744;9.162;2023-05-07T00:10:18;4.63;;;2.70;;
11197;SDS011;5655;48.744;9.162;2023-05-07T00:12:43;5.97;;;2.45;;
11197;SDS011;5655;48.744;9.162;2023-05-07T00:15:09;3.50;;;2.38;;
11197;SDS011;5655;48.744;9.162;2023-05-07T00:17:35;3.50;;;2.10;;
11197;SDS011;5655;48.744;9.162;2023-05-07T00:20:00;2.95;;;2.40;;
11197;SDS011;5655;48.744;9.162;2023-05-07T00:22:27;3.97;;;2.40;;
11197;SDS011;5655;48.744;9.162;2023-05-07T00:24:55;2.58;;;2.33;;
11197;SDS011;5655;48.744;9.162;2023-05-07T00:27:20;2.63;;;1.90;;
11197;SDS011;5655;48.744;9.162;2023-05-07T00:29:45;2.95;;;1.70;;
11197;SDS011;5655;48.744;9.162;2023-05-07T00:32:10;2.65;;;2.42;;
11197;SDS011;5655;48.744;9.162;2023-05-07T00:34:36;7.22;;;3.65;;
11197;SDS011;5655;48.744;9.162;2023-05-07T00:37:01;6.38;;;4.28;;
11197;SDS011;5655;48.744;9.162;2023-05-07T00:39:26;6.72;;;3.30;;
11197;SDS011;5655;48.744;9.162;2023-05-07T00:41:52;4.65;;;3.40;;
11197;SDS011;5655;48.744;9.162;2023-05-07T00:44:17;7.20;;;3.55;;
11197;SDS011;5655;48.744;9.162;2023-05-07T00:46:43;5.25;;;3.10;;
11197;SDS011;5655;48.744;9.162;2023-05-07T00:49:09;4.70;;;3.00;;
11197;SDS011;5655;48.744;9.162;2023-05-07T00:51:35;3.38;;;2.60;;
11197;SDS011;5655;48.744;9.162;2023-05-07T00:54:01;4.88;;;3.15;;
11197;SDS011;5655;48.744;9.162;2023-05-07T00:56:28;3.63;;;3.00;;
11197;SDS011;5655;48.744;9.162;2023-05-07T00:58:53;3.42;;;2.58;;
11197;SDS011;5655;48.744;9.162;2023-05-07T01:01:19;2.55;;;2.17;;
11197;SDS011;5655;48.744;9.162;2023-05-07T01:03:45;4.95;;;2.33;;
11197;SDS011;5655;48.744;9.162;2023-05-07T01:06:10;2.30;;;1.98;;
11197;SDS011;5655;48.744;9.162;2023-05-07T01:08:38;3.17;;;2.22;;
11197;SDS011;5655;48.744;9.162;2023-05-07T01:11:06;2.55;;;2.00;;
11197;SDS011;5655;48.744;9.162;2023-05-07T01:13:32;2.50;;;2.20;;
11197;SDS011;5655;48.744;9.162;2023-05-07T01:15:59;3.30;;;2.10;;
11197;SDS011;5655;48.744;9.162;2023-05-07T01:18:25;2.50;;;2.20;;
11197;SDS011;5655;48.744;9.162;2023-05-07T01:20:51;2.80;;;2.10;;
11197;SDS011;5655;48.744;9.162;2023-05-07T01:23:17;3.50;;;2.30;;
11197;SDS011;5655;48.744;9.162;2023-05-07T01:25:43;2.92;;;2.00;;
11197;SDS011;5655;48.744;9.162;2023-05-07T01:28:08;3.03;;;1.98;;
11197;SDS011;5655;48.744;9.162;2023-05-07T01:30:34;3.97;;;2.42;;
11197;SDS011;5655;48.744;9.162;2023-05-07T01:33:03;2.50;;;2.30;;
11197;SDS011;5655;48.744;9.162;2023-05-07T01:35:37;2.78;;;2.33;;
11197;SDS011;5655;48.744;9.162;2023-05-07T01:38:05;2.33;;;2.13;;
11197;SDS011;5655;48.744;9.162;2023-05-07T01:40:31;3.75;;;2.75;;
11197;SDS011;5655;48.744;9.162;2023-05-07T01:42:56;3.15;;;2.13;;
11197;SDS011;5655;48.744;9.162;2023-05-07T01:45:22;4.05;;;2.03;;
11197;SDS011;5655;48.744;9.162;2023-05-07T01:47:48;4.43;;;2.70;;
11197;SDS011;5655;48.744;9.162;2023-05-07T01:50:14;2.38;;;2.17;;
11197;SDS011;5655;48.744;9.162;2023-05-07T01:52:41;2.75;;;2.25;;
11197;SDS011;5655;48.744;9.162;2023-05-07T01:55:07;2.20;;;1.67;;
11197;SDS011;5655;48.744;9.162;2023-05-07T01:57:32;3.78;;;2.28;;
11197;SDS011;5655;48.744;9.162;2023-05-07T01:59:58;2.67;;;1.83;;
11197;SDS011;5655;48.744;9.162;2023-05-07T02:02:23;4.10;;;2.08;;
11197;SDS011;5655;48.744;9.162;2023-05-07T02:04:48;2.75;;;2.53;;
11197;SDS011;5655;48.744;9.162;2023-05-07T02:07:14;2.58;;;2.05;;
11197;SDS011;5655;48.744;9.162;2023-05-07T02:09:39;2.42;;;2.22;;
11197;SDS011;5655;48.744;9.162;2023-05-07T02:12:05;3.95;;;2.15;;
11197;SDS011;5655;48.744;9.162;2023-05-07T02:14:30;2.92;;;2.40;;
11197;SDS011;5655;48.744;9.162;2023-05-07T02:16:55;2.75;;;2.20;;
11197;SDS011;5655;48.744;9.162;2023-05-07T02:19:20;2.88;;;2.17;;
11197;SDS011;5655;48.744;9.162;2023-05-07T02:21:46;2.75;;;2.35;;
11197;SDS011;5655;48.744;9.162;2023-05-07T02:24:12;2.72;;;2.30;;
11197;SDS011;5655;48.744;9.162;2023-05-07T02:26:37;3.78;;;1.90;;
11197;SDS011;5655;48.744;9.162;2023-05-07T02:29:04;4.07;;;2.30;;
11197;SDS011;5655;48.744;9.162;2023-05-07T02:31:30;3.28;;;2.47;;
11197;SDS011;5655;48.744;9.162;2023-05-07T02:33:55;4.93;;;3.10;;
11197;SDS011;5655;48.744;9.162;2023-05-07T02:36:20;2.83;;;2.30;;
11197;SDS011;5655;48.744;9.162;2023-05-07T02:38:46;3.65;;;2.38;;
11197;SDS011;5655;48.744;9.162;2023-05-07T02:41:11;2.10;;;1.90;;
11197;SDS011;5655;48.744;9.162;2023-05-07T02:43:36;3.08;;;2.00;;
11197;SDS011;5655;48.744;9.162;2023-05-07T02:46:02;2.72;;;2.13;;
11197;SDS011;5655;48.744;9.162;2023-05-07T02:48:34;2.78;;;2.05;;
11197;SDS011;5655;48.744;9.162;2023-05-07T02:50:59;3.20;;;2.28;;
11197;SDS011;5655;48.744;9.162;2023-05-07T02:53:26;2.20;;;1.92;;
11197;SDS011;5655;48.744;9.162;2023-05-07T02:55:52;2.83;;;2.35;;
11197;SDS011;5655;48.744;9.162;2023-05-07T02:58:18;2.50;;;1.92;;
11197;SDS011;5655;48.744;9.162;2023-05-07T03:00:43;2.08;;;1.80;;
11197;SDS011;5655;48.744;9.162;2023-05-07T03:03:09;3.17;;;2.15;;
11197;SDS011;5655;48.744;9.162;2023-05-07T03:05:34;2.70;;;2.38;;
11197;SDS011;5655;48.744;9.162;2023-05-07T03:07:59;2.30;;;2.10;;
11197;SDS011;5655;48.744;9.162;2023-05-07T03:10:25;2.45;;;2.10;;
11197;SDS011;5655;48.744;9.162;2023-05-07T03:12:50;4.00;;;2.42;;
11197;SDS011;5655;48.744;9.162;2023-05-07T03:15:15;3.33;;;2.08;;
11197;SDS011;5655;48.744;9.162;2023-05-07T03:17:41;4.45;;;2.20;;
11197;SDS011;5655;48.744;9.162;2023-05-07T03:20:07;2.80;;;2.40;;
11197;SDS011;5655;48.744;9.162;2023-05-07T03:22:34;4.63;;;2.30;;
11197;SDS011;5655;48.744;9.162;2023-05-07T03:24:59;2.35;;;2.08;;
11197;SDS011;5655;48.744;9.162;2023-05-07T03:27:25;2.60;;;2.20;;
11197;SDS011;5655;48.744;9.162;2023-05-07T03:29:50;3.97;;;2.28;;
11197;SDS011;5655;48.744;9.162;2023-05-07T03:32:15;2.42;;;2.22;;
11197;SDS011;5655;48.744;9.162;2023-05-07T03:34:41;3.50;;;2.22;;
11197;SDS011;5655;48.744;9.162;2023-05-07T03:37:06;4.82;;;2.30;;
11197;SDS011;5655;48.744;9.162;2023-05-07T03:39:31;2.50;;;1.90;;
11197;SDS011;5655;48.744;9.162;2023-05-07T03:41:57;4.00;;;2.20;;
11197;SDS011;5655;48.744;9.162;2023-05-07T03:44:23;1.98;;;1.83;;
11197;SDS011;5655;48.744;9.162;2023-05-07T03:46:48;3.28;;;2.10;;
11197;SDS011;5655;48.744;9.162;2023-05-07T03:49:13;2.40;;;2.17;;
11197;SDS011;5655;48.744;9.162;2023-05-07T03:51:39;3.70;;;2.42;;
11197;SDS011;5655;48.744;9.162;2023-05-07T03:54:04;3.90;;;2.13;;
11197;SDS011;5655;48.744;9.162;2023-05-07T03:56:29;3.58;;;3.10;;
11197;SDS011;5655;48.744;9.162;2023-05-07T03:58:56;3.90;;;2.17;;
11197;SDS011;5655;48.744;9.162;2023-05-07T04:01:21;3.78;;;2.30;;
11197;SDS011;5655;48.744;9.162;2023-05-07T04:03:46;4.00;;;2.33;;
11197;SDS011;5655;48.744;9.162;2023-05-07T04:06:12;2.75;;;2.55;;
11197;SDS011;5655;48.744;9.162;2023-05-07T04:08:37;3.20;;;2.55;;
11197;SDS011;5655;48.744;9.162;2023-05-07T04:11:02;4.28;;;2.47;;
11197;SDS011;5655;48.744;9.162;2023-05-07T04:13:28;3.13;;;2.25;;
11197;SDS011;5655;48.744;9.162;2023-05-07T04:15:54;5.00;;;2.55;;
11197;SDS011;5655;48.744;9.162;2023-05-07T04:18:20;5.00;;;2.30;;
11197;SDS011;5655;48.744;9.162;2023-05-07T04:20:46;3.42;;;2.25;;
11197;SDS011;5655;48.744;9.162;2023-05-07T04:23:12;4.57;;;2.50;;
11197;SDS011;5655;48.744;9.162;2023-05-07T04:25:37;3.22;;;2.42;;
11197;SDS011;5655;48.744;9.162;2023-05-07T04:28:03;4.13;;;2.50;;
11197;SDS011;5655;48.744;9.162;2023-05-07T04:30:28;2.95;;;2.60;;
11197;SDS011;5655;48.744;9.162;2023-05-07T04:32:54;6.63;;;2.78;;
11197;SDS011;5655;48.744;9.162;2023-05-07T04:35:19;2.92;;;2.40;;
11197;SDS011;5655;48.744;9.162;2023-05-07T04:37:44;3.42;;;2.40;;
11197;SDS011;5655;48.744;9.162;2023-05-07T04:40:10;2.85;;;2.65;;
11197;SDS011;5655;48.744;9.162;2023-05-07T04:42:35;2.83;;;2.38;;
11197;SDS011;5655;48.744;9.162;2023-05-07T04:45:01;4.90;;;2.60;;
11197;SDS011;5655;48.744;9.162;2023-05-07T04:47:27;2.90;;;2.60;;
11197;SDS011;5655;48.744;9.162;2023-05-07T04:49:52;2.95;;;2.58;;
11197;SDS011;5655;48.744;9.162;2023-05-07T04:52:17;4.57;;;2.80;;
11197;SDS011;5655;48.744;9.162;2023-05-07T04:54:43;3.47;;;2.70;;
11197;SDS011;5655;48.744;9.162;2023-05-07T04:57:08;4.93;;;3.00;;
11197;SDS011;5655;48.744;9.162;2023-05-07T04:59:33;3.15;;;2.88;;
11197;SDS011;5655;48.744;9.162;2023-05-07T05:01:59;5.10;;;3.20;;
11197;SDS011;5655;48.744;9.162;2023-05-07T05:04:24;3.10;;;2.80;;
11197;SDS011;5655;48.744;9.162;2023-05-07T05:06:49;4.72;;;2.78;;
11197;SDS011;5655;48.744;9.162;2023-05-07T05:09:15;4.07;;;2.85;;
11197;SDS011;5655;48.744;9.162;2023-05-07T05:11:40;3.20;;;2.78;;
11197;SDS011;5655;48.744;9.162;2023-05-07T05:14:06;4.18;;;3.20;;
11197;SDS011;5655;48.744;9.162;2023-05-07T05:16:31;4.35;;;3.05;;
11197;SDS011;5655;48.744;9.162;2023-05-07T05:18:57;3.05;;;2.75;;
11197;SDS011;5655;48.744;9.162;2023-05-07T05:21:22;3.15;;;2.85;;
11197;SDS011;5655;48.744;9.162;2023-05-07T05:23:47;4.47;;;2.78;;
11197;SDS011;5655;48.744;9.162;2023-05-07T05:26:12;5.28;;;3.30;;
11197;SDS011;5655;48.744;9.162;2023-05-07T05:28:38;6.50;;;3.60;;
11197;SDS011;5655;48.744;9.162;2023-05-07T05:31:04;3.30;;;2.97;;
11197;SDS011;5655;48.744;9.162;2023-05-07T05:33:30;4.43;;;2.90;;
11197;SDS011;5655;48.744;9.162;2023-05-07T05:35:55;3.30;;;2.28;;
11197;SDS011;5655;48.744;9.162;2023-05-07T05:38:20;6.03;;;2.95;;
11197;SDS011;5655;48.744;9.162;2023-05-07T05:40:46;3.97;;;2.88;;
11197;SDS011;5655;48.744;9.162;2023-05-07T05:43:11;5.22;;;3.08;;
11197;SDS011;5655;48.744;9.162;2023-05-07T05:45:36;5.10;;;3.10;;
11197;SDS011;5655;48.744;9.162;2023-05-07T05:48:02;4.35;;;2.90;;
11197;SDS011;5655;48.744;9.162;2023-05-07T05:50:27;6.28;;;3.47;;
11197;SDS011;5655;48.744;9.162;2023-05-07T05:52:52;3.42;;;2.80;;
11197;SDS011;5655;48.744;9.162;2023-05-07T05:55:18;4.57;;;2.90;;
11197;SDS011;5655;48.744;9.162;2023-05-07T05:57:43;3.38;;;2.50;;
11197;SDS011;5655;48.744;9.162;2023-05-07T06:00:09;3.50;;;2.72;;
11197;SDS011;5655;48.744;9.162;2023-05-07T06:02:34;4.43;;;2.70;;
11197;SDS011;5655;48.744;9.162;2023-05-07T06:05:00;3.47;;;2.70;;
11197;SDS011;5655;48.744;9.162;2023-05-07T06:07:25;3.45;;;3.00;;
11197;SDS011;5655;48.744;9.162;2023-05-07T06:09:50;3.80;;;3.00;;
11197;SDS011;5655;48.744;9.162;2023-05-07T06:12:16;3.38;;;2.92;;
11197;SDS011;5655;48.744;9.162;2023-05-07T06:14:42;3.72;;;3.10;;
11197;SDS011;5655;48.744;9.162;2023-05-07T06:17:08;4.45;;;2.58;;
11197;SDS011;5655;48.744;9.162;2023-05-07T06:19:33;4.50;;;3.45;;
11197;SDS011;5655;48.744;9.162;2023-05-07T06:21:59;4.28;;;3.00;;
11197;SDS011;5655;48.744;9.162;2023-05-07T06:24:26;3.30;;;3.00;;
11197;SDS011;5655;48.744;9.162;2023-05-07T06:26:51;4.70;;;3.25;;
11197;SDS011;5655;48.744;9.162;2023-05-07T06:29:16;3.50;;;3.03;;
11197;SDS011;5655;48.744;9.162;2023-05-07T06:31:42;3.72;;;3.00;;
11197;SDS011;5655;48.744;9.162;2023-05-07T06:34:07;3.55;;;3.10;;
11197;SDS011;5655;48.744;9.162;2023-05-07T06:36:32;4.57;;;3.33;;
11197;SDS011;5655;48.744;9.162;2023-05-07T06:38:58;3.30;;;2.95;;
11197;SDS011;5655;48.744;9.162;2023-05-07T06:41:23;4.50;;;2.85;;
11197;SDS011;5655;48.744;9.162;2023-05-07T06:43:48;4.13;;;3.72;;
11197;SDS011;5655;48.744;9.162;2023-05-07T06:46:14;5.13;;;2.90;;
11197;SDS011;5655;48.744;9.162;2023-05-07T06:48:39;3.42;;;3.10;;
11197;SDS011;5655;48.744;9.162;2023-05-07T06:51:05;6.80;;;3.80;;
11197;SDS011;5655;48.744;9.162;2023-05-07T06:53:30;3.88;;;3.40;;
11197;SDS011;5655;48.744;9.162;2023-05-07T06:55:56;4.15;;;3.78;;
11197;SDS011;5655;48.744;9.162;2023-05-07T06:58:21;4.25;;;3.83;;
11197;SDS011;5655;48.744;9.162;2023-05-07T07:00:47;4.47;;;3.58;;
11197;SDS011;5655;48.744;9.162;2023-05-07T07:03:12;5.75;;;3.30;;
11197;SDS011;5655;48.744;9.162;2023-05-07T07:05:38;4.35;;;3.95;;
11197;SDS011;5655;48.744;9.162;2023-05-07T07:08:05;4.30;;;3.78;;
11197;SDS011;5655;48.744;9.162;2023-05-07T07:10:30;4.60;;;4.00;;
11197;SDS011;5655;48.744;9.162;2023-05-07T07:12:55;4.32;;;3.20;;
11197;SDS011;5655;48.744;9.162;2023-05-07T07:15:21;6.50;;;3.58;;
11197;SDS011;5655;48.744;9.162;2023-05-07T07:17:46;4.72;;;3.97;;
11197;SDS011;5655;48.744;9.162;2023-05-07T07:20:12;4.57;;;3.80;;
11197;SDS011;5655;48.744;9.162;2023-05-07T07:22:38;6.07;;;3.45;;
11197;SDS011;5655;48.744;9.162;2023-05-07T07:25:03;4.15;;;3.65;;
11197;SDS011;5655;48.744;9.162;2023-05-07T07:27:29;5.35;;;3.85;;
11197;SDS011;5655;48.744;9.162;2023-05-07T07:29:55;5.40;;;3.70;;
11197;SDS011;5655;48.744;9.162;2023-05-07T07:32:20;4.57;;;3.70;;
11197;SDS011;5655;48.744;9.162;2023-05-07T07:34:45;4.35;;;3.30;;
11197;SDS011;5655;48.744;9.162;2023-05-07T07:37:11;4.47;;;3.70;;
11197;SDS011;5655;48.744;9.162;2023-05-07T07:39:36;5.72;;;3.60;;
11197;SDS011;5655;48.744;9.162;2023-05-07T07:42:04;4.50;;;3.28;;
11197;SDS011;5655;48.744;9.162;2023-05-07T07:44:30;5.50;;;3.78;;
11197;SDS011;5655;48.744;9.162;2023-05-07T07:46:55;3.72;;;3.30;;
11197;SDS011;5655;48.744;9.162;2023-05-07T07:49:21;3.95;;;3.20;;
11197;SDS011;5655;48.744;9.162;2023-05-07T07:51:46;5.00;;;3.72;;
11197;SDS011;5655;48.744;9.162;2023-05-07T07:54:11;4.75;;;3.35;;
11197;SDS011;5655;48.744;9.162;2023-05-07T07:56:37;4.22;;;2.80;;
11197;SDS011;5655;48.744;9.162;2023-05-07T07:59:03;6.00;;;2.97;;
11197;SDS011;5655;48.744;9.162;2023-05-07T08:01:31;3.58;;;3.28;;
11197;SDS011;5655;48.744;9.162;2023-05-07T08:03:57;4.95;;;3.35;;
11197;SDS011;5655;48.744;9.162;2023-05-07T08:06:23;4.50;;;3.40;;
11197;SDS011;5655;48.744;9.162;2023-05-07T08:08:50;4.88;;;2.92;;
11197;SDS011;5655;48.744;9.162;2023-05-07T08:11:16;3.80;;;3.40;;
11197;SDS011;5655;48.744;9.162;2023-05-07T08:13:41;4.40;;;3.22;;
11197;SDS011;5655;48.744;9.162;2023-05-07T08:16:06;6.22;;;2.95;;
11197;SDS011;5655;48.744;9.162;2023-05-07T08:18:32;4.95;;;3.17;;
11197;SDS011;5655;48.744;9.162;2023-05-07T08:20:57;4.45;;;3.33;;
11197;SDS011;5655;48.744;9.162;2023-05-07T08:23:23;3.10;;;2.78;;
11197;SDS011;5655;48.744;9.162;2023-05-07T08:25:49;2.97;;;2.60;;
11197;SDS011;5655;48.744;9.162;2023-05-07T08:28:14;4.18;;;2.72;;
11197;SDS011;5655;48.744;9.162;2023-05-07T08:30:40;6.25;;;3.30;;
11197;SDS011;5655;48.744;9.162;2023-05-07T08:33:06;4.63;;;3.13;;
11197;SDS011;5655;48.744;9.162;2023-05-07T08:35:31;4.30;;;3.58;;
11197;SDS011;5655;48.744;9.162;2023-05-07T08:37:56;6.20;;;3.83;;
11197;SDS011;5655;48.744;9.162;2023-05-07T08:40:23;3.85;;;3.08;;
11197;SDS011;5655;48.744;9.162;2023-05-07T08:42:50;8.30;;;3.58;;
11197;SDS011;5655;48.744;9.162;2023-05-07T08:45:17;4.80;;;2.95;;
11197;SDS011;5655;48.744;9.162;2023-05-07T08:47:44;3.78;;;3.15;;
11197;SDS011;5655;48.744;9.162;2023-05-07T08:50:15;3.58;;;2.80;;
11197;SDS011;5655;48.744;9.162;2023-05-07T08:52:41;5.63;;;3.28;;
11197;SDS011;5655;48.744;9.162;2023-05-07T08:55:06;3.60;;;2.75;;
11197;SDS011;5655;48.744;9.162;2023-05-07T08:57:32;4.30;;;2.88;;
11197;SDS011;5655;48.744;9.162;2023-05-07T08:59:58;5.00;;;3.30;;
11197;SDS011;5655;48.744;9.162;2023-05-07T09:02:23;4.43;;;3.08;;
11197;SDS011;5655;48.744;9.162;2023-05-07T09:04:48;3.33;;;2.80;;
11197;SDS011;5655;48.744;9.162;2023-05-07T09:07:14;6.15;;;2.90;;
11197;SDS011;5655;48.744;9.162;2023-05-07T09:09:39;3.45;;;2.88;;
11197;SDS011;5655;48.744;9.162;2023-05-07T09:12:05;5.28;;;3.20;;
11197;SDS011;5655;48.744;9.162;2023-05-07T09:14:30;3.50;;;2.83;;
11197;SDS011;5655;48.744;9.162;2023-05-07T09:16:56;7.03;;;2.75;;
11197;SDS011;5655;48.744;9.162;2023-05-07T09:19:22;5.63;;;2.53;;
11197;SDS011;5655;48.744;9.162;2023-05-07T09:21:48;3.55;;;3.10;;
11197;SDS011;5655;48.744;9.162;2023-05-07T09:24:15;4.85;;;2.35;;
11197;SDS011;5655;48.744;9.162;2023-05-07T09:26:41;3.05;;;2.35;;
11197;SDS011;5655;48.744;9.162;2023-05-07T09:29:07;3.92;;;2.28;;
11197;SDS011;5655;48.744;9.162;2023-05-07T09:31:36;3.08;;;2.65;;
11197;SDS011;5655;48.744;9.162;2023-05-07T09:34:04;2.92;;;2.40;;
11197;SDS011;5655;48.744;9.162;2023-05-07T09:36:31;3.17;;;2.40;;
11197;SDS011;5655;48.744;9.162;2023-05-07T09:38:58;4.43;;;2.60;;
11197;SDS011;5655;48.744;9.162;2023-05-07T09:41:25;2.88;;;2.25;;
11197;SDS011;5655;48.744;9.162;2023-05-07T09:43:54;3.78;;;2.70;;
11197;SDS011;5655;48.744;9.162;2023-05-07T09:46:19;3.05;;;2.30;;
11197;SDS011;5655;48.744;9.162;2023-05-07T09:48:53;2.85;;;2.53;;
11197;SDS011;5655;48.744;9.162;2023-05-07T09:51:24;2.47;;;2.10;;
11197;SDS011;5655;48.744;9.162;2023-05-07T09:53:53;3.47;;;2.30;;
11197;SDS011;5655;48.744;9.162;2023-05-07T09:56:19;4.20;;;2.40;;
11197;SDS011;5655;48.744;9.162;2023-05-07T09:58:45;2.38;;;2.00;;
11197;SDS011;5655;48.744;9.162;2023-05-07T10:01:12;5.07;;;2.15;;
11197;SDS011;5655;48.744;9.162;2023-05-07T10:03:39;2.92;;;2.22;;
11197;SDS011;5655;48.744;9.162;2023-05-07T10:06:06;2.67;;;2.00;;
11197;SDS011;5655;48.744;9.162;2023-05-07T10:08:37;2.47;;;2.15;;
11197;SDS011;5655;48.744;9.162;2023-05-07T10:11:05;3.40;;;1.98;;
11197;SDS011;5655;48.744;9.162;2023-05-07T10:13:32;2.30;;;2.10;;
11197;SDS011;5655;48.744;9.162;2023-05-07T10:16:00;2.28;;;2.08;;
11197;SDS011;5655;48.744;9.162;2023-05-07T10:18:27;2.88;;;1.98;;
11197;SDS011;5655;48.744;9.162;2023-05-07T10:20:58;6.38;;;2.20;;
11197;SDS011;5655;48.744;9.162;2023-05-07T10:23:29;2.28;;;1.75;;
11197;SDS011;5655;48.744;9.162;2023-05-07T10:25:56;2.20;;;2.00;;
11197;SDS011;5655;48.744;9.162;2023-05-07T10:28:24;4.22;;;1.95;;
11197;SDS011;5655;48.744;9.162;2023-05-07T10:33:45;2.30;;;2.00;;
11197;SDS011;5655;48.744;9.162;2023-05-07T10:36:13;3.50;;;1.83;;
11197;SDS011;5655;48.744;9.162;2023-05-07T10:38:39;2.70;;;2.05;;
11197;SDS011;5655;48.744;9.162;2023-05-07T10:41:05;2.85;;;1.77;;
11197;SDS011;5655;48.744;9.162;2023-05-07T10:43:41;3.30;;;2.00;;
11197;SDS011;5655;48.744;9.162;2023-05-07T10:46:11;3.80;;;1.88;;
11197;SDS011;5655;48.744;9.162;2023-05-07T10:51:25;3.03;;;1.75;;
11197;SDS011;5655;48.744;9.162;2023-05-07T10:54:33;2.33;;;2.05;;
11197;SDS011;5655;48.744;9.162;2023-05-07T10:56:40;3.63;;;1.70;;
11197;SDS011;5655;48.744;9.162;2023-05-07T11:01:56;2.30;;;1.92;;
11197;SDS011;5655;48.744;9.162;2023-05-07T11:04:23;2.53;;;1.70;;
11197;SDS011;5655;48.744;9.162;2023-05-07T11:12:19;1.80;;;1.67;;
11197;SDS011;5655;48.744;9.162;2023-05-07T11:15:06;2.45;;;1.77;;
11197;SDS011;5655;48.744;9.162;2023-05-07T11:17:32;2.20;;;2.00;;
11197;SDS011;5655;48.744;9.162;2023-05-07T11:20:00;2.13;;;1.67;;
11197;SDS011;5655;48.744;9.162;2023-05-07T11:24:55;3.05;;;1.90;;
11197;SDS011;5655;48.744;9.162;2023-05-07T11:27:24;3.03;;;1.67;;
11197;SDS011;5655;48.744;9.162;2023-05-07T11:29:51;2.75;;;1.80;;
11197;SDS011;5655;48.744;9.162;2023-05-07T11:32:22;2.35;;;1.80;;
11197;SDS011;5655;48.744;9.162;2023-05-07T11:34:51;1.83;;;1.67;;
11197;SDS011;5655;48.744;9.162;2023-05-07T11:37:17;2.28;;;1.70;;
11197;SDS011;5655;48.744;9.162;2023-05-07T11:39:42;4.13;;;2.08;;
11197;SDS011;5655;48.744;9.162;2023-05-07T11:42:24;3.13;;;1.98;;
11197;SDS011;5655;48.744;9.162;2023-05-07T11:44:53;3.90;;;1.90;;
11197;SDS011;5655;48.744;9.162;2023-05-07T11:47:19;2.03;;;1.65;;
11197;SDS011;5655;48.744;9.162;2023-05-07T11:49:48;2.13;;;1.67;;
11197;SDS011;5655;48.744;9.162;2023-05-07T11:52:15;4.22;;;2.08;;
11197;SDS011;5655;48.744;9.162;2023-05-07T11:57:22;2.42;;;2.00;;
11197;SDS011;5655;48.744;9.162;2023-05-07T11:59:57;2.55;;;1.90;;
11197;SDS011;5655;48.744;9.162;2023-05-07T12:02:24;3.38;;;2.00;;
11197;SDS011;5655;48.744;9.162;2023-05-07T12:04:53;4.57;;;2.08;;
11197;SDS011;5655;48.744;9.162;2023-05-07T12:07:19;1.70;;;1.60;;
11197;SDS011;5655;48.744;9.162;2023-05-07T12:09:45;4.82;;;2.00;;
11197;SDS011;5655;48.744;9.162;2023-05-07T12:12:11;2.30;;;2.10;;
11197;SDS011;5655;48.744;9.162;2023-05-07T12:14:40;2.75;;;2.25;;
11197;SDS011;5655;48.744;9.162;2023-05-07T12:17:09;3.60;;;1.83;;
11197;SDS011;5655;48.744;9.162;2023-05-07T12:19:36;4.18;;;2.03;;
11197;SDS011;5655;48.744;9.162;2023-05-07T12:22:02;4.93;;;2.42;;
11197;SDS011;5655;48.744;9.162;2023-05-07T12:24:28;1.98;;;1.33;;
11197;SDS011;5655;48.744;9.162;2023-05-07T12:26:54;2.60;;;1.40;;
11197;SDS011;5655;48.744;9.162;2023-05-07T12:29:23;3.00;;;1.15;;
11197;SDS011;5655;48.744;9.162;2023-05-07T12:31:49;2.35;;;1.70;;
11197;SDS011;5655;48.744;9.162;2023-05-07T12:34:15;4.75;;;1.95;;
11197;SDS011;5655;48.744;9.162;2023-05-07T12:36:40;4.40;;;2.08;;
11197;SDS011;5655;48.744;9.162;2023-05-07T12:39:06;3.50;;;1.77;;
11197;SDS011;5655;48.744;9.162;2023-05-07T12:41:51;7.15;;;3.10;;
11197;SDS011;5655;48.744;9.162;2023-05-07T12:44:19;8.10;;;2.63;;
11197;SDS011;5655;48.744;9.162;2023-05-07T12:46:44;5.45;;;1.73;;
11197;SDS011;5655;48.744;9.162;2023-05-07T12:49:11;2.63;;;1.33;;
11197;SDS011;5655;48.744;9.162;2023-05-07T12:51:37;1.77;;;1.33;;
11197;SDS011;5655;48.744;9.162;2023-05-07T12:54:02;1.38;;;1.10;;
11197;SDS011;5655;48.744;9.162;2023-05-07T12:56:30;2.47;;;1.02;;
11197;SDS011;5655;48.744;9.162;2023-05-07T12:58:59;2.15;;;1.13;;
11197;SDS011;5655;48.744;9.162;2023-05-07T13:01:28;3.33;;;1.63;;
11197;SDS011;5655;48.744;9.162;2023-05-07T13:03:54;2.83;;;1.40;;
11197;SDS011;5655;48.744;9.162;2023-05-07T13:06:20;1.90;;;1.20;;
11197;SDS011;5655;48.744;9.162;2023-05-07T13:08:45;2.03;;;1.35;;
11197;SDS011;5655;48.744;9.162;2023-05-07T13:11:10;3.40;;;1.42;;
11197;SDS011;5655;48.744;9.162;2023-05-07T13:13:37;4.50;;;1.65;;
11197;SDS011;5655;48.744;9.162;2023-05-07T13:16:05;4.63;;;1.83;;
11197;SDS011;5655;48.744;9.162;2023-05-07T13:18:31;4.63;;;1.92;;
11197;SDS011;5655;48.744;9.162;2023-05-07T13:20:57;3.40;;;1.75;;
11197;SDS011;5655;48.744;9.162;2023-05-07T13:23:23;6.05;;;2.13;;
11197;SDS011;5655;48.744;9.162;2023-05-07T13:25:48;2.75;;;1.77;;
11197;SDS011;5655;48.744;9.162;2023-05-07T13:28:15;4.43;;;1.67;;
11197;SDS011;5655;48.744;9.162;2023-05-07T13:30:40;2.97;;;1.88;;
11197;SDS011;5655;48.744;9.162;2023-05-07T13:33:06;3.45;;;1.70;;
11197;SDS011;5655;48.744;9.162;2023-05-07T13:35:32;4.93;;;2.20;;
11197;SDS011;5655;48.744;9.162;2023-05-07T13:37:57;2.50;;;1.50;;
11197;SDS011;5655;48.744;9.162;2023-05-07T13:40:23;2.88;;;1.77;;
11197;SDS011;5655;48.744;9.162;2023-05-07T13:42:49;3.17;;;1.30;;
11197;SDS011;5655;48.744;9.162;2023-05-07T13:45:15;2.58;;;1.20;;
11197;SDS011;5655;48.744;9.162;2023-05-07T13:47:41;3.90;;;1.40;;
11197;SDS011;5655;48.744;9.162;2023-05-07T13:50:07;3.42;;;1.27;;
11197;SDS011;5655;48.744;9.162;2023-05-07T13:52:33;3.90;;;1.40;;
11197;SDS011;5655;48.744;9.162;2023-05-07T13:54:59;3.78;;;1.02;;
11197;SDS011;5655;48.744;9.162;2023-05-07T13:57:24;3.45;;;1.30;;
11197;SDS011;5655;48.744;9.162;2023-05-07T13:59:50;4.50;;;1.60;;
11197;SDS011;5655;48.744;9.162;2023-05-07T14:02:15;6.57;;;1.90;;
11197;SDS011;5655;48.744;9.162;2023-05-07T14:04:40;3.53;;;1.83;;
11197;SDS011;5655;48.744;9.162;2023-05-07T14:07:06;4.10;;;2.53;;
11197;SDS011;5655;48.744;9.162;2023-05-07T14:09:31;7.10;;;2.78;;
11197;SDS011;5655;48.744;9.162;2023-05-07T14:11:58;4.25;;;2.88;;
11197;SDS011;5655;48.744;9.162;2023-05-07T14:14:23;3.95;;;2.65;;
11197;SDS011;5655;48.744;9.162;2023-05-07T14:16:49;6.32;;;3.22;;
11197;SDS011;5655;48.744;9.162;2023-05-07T14:19:14;5.97;;;3.00;;
11197;SDS011;5655;48.744;9.162;2023-05-07T14:21:40;4.82;;;3.70;;
11197;SDS011;5655;48.744;9.162;2023-05-07T14:24:06;6.93;;;3.95;;
11197;SDS011;5655;48.744;9.162;2023-05-07T14:26:33;5.13;;;3.65;;
11197;SDS011;5655;48.744;9.162;2023-05-07T14:28:59;5.40;;;3.78;;
11197;SDS011;5655;48.744;9.162;2023-05-07T14:31:25;5.43;;;3.60;;
11197;SDS011;5655;48.744;9.162;2023-05-07T14:33:50;6.70;;;4.18;;
11197;SDS011;5655;48.744;9.162;2023-05-07T14:36:17;4.93;;;3.85;;
11197;SDS011;5655;48.744;9.162;2023-05-07T14:38:44;6.82;;;4.13;;
11197;SDS011;5655;48.744;9.162;2023-05-07T14:41:10;5.57;;;4.10;;
11197;SDS011;5655;48.744;9.162;2023-05-07T14:43:36;5.72;;;4.00;;
11197;SDS011;5655;48.744;9.162;2023-05-07T14:46:01;3.40;;;3.00;;
11197;SDS011;5655;48.744;9.162;2023-05-07T14:48:26;8.20;;;4.10;;
11197;SDS011;5655;48.744;9.162;2023-05-07T14:50:52;5.13;;;3.30;;
11197;SDS011;5655;48.744;9.162;2023-05-07T14:53:17;4.30;;;3.15;;
11197;SDS011;5655;48.744;9.162;2023-05-07T14:55:42;3.67;;;2.90;;
11197;SDS011;5655;48.744;9.162;2023-05-07T14:58:08;5.18;;;2.80;;
11197;SDS011;5655;48.744;9.162;2023-05-07T15:00:33;5.90;;;2.72;;
11197;SDS011;5655;48.744;9.162;2023-05-07T15:03:03;5.18;;;2.70;;
11197;SDS011;5655;48.744;9.162;2023-05-07T15:05:31;4.43;;;3.45;;
11197;SDS011;5655;48.744;9.162;2023-05-07T15:07:56;4.45;;;3.13;;
11197;SDS011;5655;48.744;9.162;2023-05-07T15:10:22;3.67;;;3.03;;
11197;SDS011;5655;48.744;9.162;2023-05-07T15:12:47;5.85;;;2.95;;